createdAt,value
2019-04-26T00:01:48.194Z,32.63
2019-04-26T00:04:16.994Z,47.03
2019-04-26T00:06:47.520Z,47.57
2019-04-26T00:09:27.038Z,50.87
2019-04-26T00:12:14.428Z,50.43
2019-04-26T00:15:01.693Z,33.90
2019-04-26T00:17:38.497Z,43.87
2019-04-26T00:20:08.430Z,28.07
2019-04-26T00:22:37.233Z,39.60
2019-04-26T00:25:06.905Z,38.43
2019-04-26T00:27:35.658Z,46.93
2019-04-26T00:30:05.863Z,39.20
2019-04-26T00:32:34.622Z,41.27
2019-04-26T00:35:03.409Z,42.80
2019-04-26T00:37:32.138Z,65.73
2019-04-26T00:40:00.889Z,55.03
2019-04-26T00:42:31.117Z,39.73
2019-04-26T00:44:59.947Z,47.13
2019-04-26T00:47:29.306Z,43.07
2019-04-26T00:49:58.924Z,40.50
2019-04-26T00:52:29.021Z,41.93
2019-04-26T00:54:58.605Z,35.43
2019-04-26T00:57:29.654Z,32.80
2019-04-26T00:59:59.008Z,43.63
2019-04-26T01:02:29.378Z,46.17
2019-04-26T01:04:58.106Z,28.23
2019-04-26T01:07:26.934Z,25.37
2019-04-26T01:09:55.657Z,20.57
2019-04-26T01:12:24.385Z,25.23
2019-04-26T01:14:53.153Z,19.50
2019-04-26T01:17:22.408Z,26.73
2019-04-26T01:19:53.377Z,25.00
2019-04-26T01:22:25.336Z,21.27
2019-04-26T01:24:56.048Z,29.77
2019-04-26T01:27:27.799Z,26.53
2019-04-26T01:29:59.418Z,36.13
2019-04-26T01:32:29.059Z,26.93
2019-04-26T01:34:58.078Z,21.13
2019-04-26T01:37:27.426Z,33.90
2019-04-26T01:40:00.765Z,16.60
2019-04-26T01:42:36.978Z,26.87
2019-04-26T01:45:07.951Z,26.13
2019-04-26T01:47:38.075Z,21.43
2019-04-26T01:50:07.601Z,21.53
2019-04-26T01:52:36.333Z,37.60
2019-04-26T01:55:07.494Z,35.00
2019-04-26T01:57:37.028Z,20.73
2019-04-26T02:00:18.944Z,31.77
2019-04-26T02:02:49.286Z,31.70
2019-04-26T02:05:19.650Z,31.00
2019-04-26T02:07:48.597Z,21.07
2019-04-26T02:10:19.807Z,18.77
2019-04-26T02:12:50.458Z,23.73
2019-04-26T02:15:23.966Z,29.33
2019-04-26T02:17:56.113Z,21.10
2019-04-26T02:20:44.650Z,22.73
2019-04-26T02:23:17.738Z,20.17
2019-04-26T02:25:46.541Z,27.63
2019-04-26T02:28:15.355Z,24.53
2019-04-26T02:30:44.182Z,21.70
2019-04-26T02:33:13.102Z,28.90
2019-04-26T02:35:41.833Z,25.00
2019-04-26T02:38:10.594Z,25.60
2019-04-26T02:40:39.419Z,21.80
2019-04-26T02:43:09.268Z,26.00
2019-04-26T02:45:56.614Z,15.17
2019-04-26T02:48:34.279Z,27.97
2019-04-26T02:51:08.202Z,24.33
2019-04-26T02:54:05.402Z,22.47
2019-04-26T02:56:40.172Z,23.17
2019-04-26T02:59:29.600Z,22.80
2019-04-26T03:02:00.330Z,35.70
2019-04-26T03:04:30.998Z,27.13
2019-04-26T03:07:06.596Z,26.90
2019-04-26T03:09:38.876Z,22.10
2019-04-26T03:12:17.306Z,21.87
2019-04-26T03:14:50.615Z,33.13
2019-04-26T03:17:26.367Z,26.83
2019-04-26T03:19:59.804Z,22.63
2019-04-26T03:22:49.420Z,25.77
2019-04-26T03:25:34.742Z,19.40
2019-04-26T03:28:06.479Z,22.60
2019-04-26T03:30:56.099Z,26.40
2019-04-26T03:33:27.825Z,29.90
2019-04-26T03:36:20.998Z,21.00
2019-04-26T03:39:06.623Z,22.93
2019-04-26T03:42:02.004Z,20.33
2019-04-26T03:44:40.922Z,35.83
2019-04-26T03:47:12.651Z,28.57
2019-04-26T03:49:47.307Z,22.30
2019-04-26T03:52:19.004Z,23.40
2019-04-26T03:54:50.654Z,28.00
2019-04-26T03:57:29.767Z,31.20
2019-04-26T04:00:08.662Z,28.43
2019-04-26T04:03:15.449Z,25.10
2019-04-26T04:05:48.982Z,21.27
2019-04-26T04:08:20.780Z,14.13
2019-04-26T04:11:01.530Z,20.17
2019-04-26T04:13:45.803Z,16.07
2019-04-26T04:16:38.567Z,20.77
2019-04-26T04:19:24.183Z,16.30
2019-04-26T04:22:17.169Z,18.60
2019-04-26T04:24:54.624Z,12.00
2019-04-26T04:27:35.484Z,21.73
2019-04-26T04:30:07.245Z,15.50
2019-04-26T04:32:52.185Z,33.60
2019-04-26T04:35:24.308Z,26.37
2019-04-26T04:38:08.595Z,23.63
2019-04-26T04:40:53.453Z,23.57
2019-04-26T04:43:32.263Z,19.87
2019-04-26T04:46:21.115Z,24.70
2019-04-26T04:49:35.498Z,18.17
2019-04-26T04:52:15.872Z,18.53
2019-04-26T04:55:07.091Z,19.40
2019-04-26T04:57:32.516Z,12.70
2019-04-26T05:00:20.937Z,20.47
2019-04-26T05:03:06.342Z,27.50
2019-04-26T05:05:49.060Z,18.20
2019-04-26T05:08:37.646Z,13.57
2019-04-26T05:11:12.180Z,29.67
2019-04-26T05:13:52.648Z,15.23
2019-04-26T05:16:40.767Z,24.30
2019-04-26T05:19:40.857Z,10.87
2019-04-26T05:22:38.027Z,21.03
2019-04-26T05:25:49.367Z,16.10
2019-04-26T05:28:52.373Z,18.70
2019-04-26T05:31:42.448Z,21.43
2019-04-26T05:34:21.783Z,18.30
2019-04-26T05:36:59.153Z,19.97
2019-04-26T05:39:30.842Z,15.17
2019-04-26T05:42:29.948Z,15.60
2019-04-26T05:45:28.801Z,22.43
2019-04-26T05:48:40.050Z,23.40
2019-04-26T05:51:30.600Z,18.07
2019-04-26T05:54:37.520Z,32.90
2019-04-26T05:57:22.905Z,16.63
2019-04-26T05:59:57.129Z,25.70
2019-04-26T06:02:46.701Z,20.83
2019-04-26T06:05:36.040Z,20.17
2019-04-26T06:08:39.440Z,26.07
2019-04-26T06:11:12.766Z,25.80
2019-04-26T06:13:57.864Z,24.80
2019-04-26T06:16:43.149Z,31.03
2019-04-26T06:19:27.733Z,28.10
2019-04-26T06:22:08.064Z,30.80
2019-04-26T06:25:01.055Z,32.30
2019-04-26T06:27:34.365Z,26.77
2019-04-26T06:30:18.789Z,25.87
2019-04-26T06:33:08.948Z,27.63
2019-04-26T06:35:42.571Z,29.77
2019-04-26T06:38:43.725Z,23.93
2019-04-26T06:41:25.274Z,32.40
2019-04-26T06:44:04.724Z,32.07
2019-04-26T06:46:44.020Z,32.80
2019-04-26T06:49:41.265Z,31.47
2019-04-26T06:52:18.910Z,31.80
2019-04-26T06:54:56.792Z,34.73
2019-04-26T06:58:07.333Z,26.50
2019-04-26T07:00:46.401Z,29.97
2019-04-26T07:03:24.080Z,41.47
2019-04-26T07:06:04.492Z,38.17
2019-04-26T07:08:42.083Z,25.60
2019-04-26T07:11:40.751Z,31.60
2019-04-26T07:14:28.839Z,21.90
2019-04-26T07:17:06.328Z,33.10
2019-04-26T07:20:03.222Z,27.13
2019-04-26T07:23:04.493Z,26.77
2019-04-26T07:25:43.572Z,28.27
2019-04-26T07:28:24.225Z,26.43
2019-04-26T07:30:59.663Z,34.67
2019-04-26T07:34:05.791Z,23.90
2019-04-26T07:36:49.398Z,23.40
2019-04-26T07:39:37.136Z,22.23
2019-04-26T07:42:30.244Z,19.37
2019-04-26T07:45:24.616Z,16.67
2019-04-26T07:48:20.605Z,21.00
2019-04-26T07:51:16.721Z,19.77
2019-04-26T07:53:57.035Z,20.90
2019-04-26T07:56:31.527Z,23.13
2019-04-26T07:59:23.028Z,22.30
2019-04-26T08:02:32.755Z,11.57
2019-04-26T08:05:21.216Z,19.17
2019-04-26T08:07:58.413Z,16.87
2019-04-26T08:10:30.074Z,12.63
2019-04-26T08:13:08.026Z,17.50
2019-04-26T08:15:41.473Z,17.57
2019-04-26T08:18:22.586Z,10.37
2019-04-26T08:20:54.733Z,14.50
2019-04-26T08:23:38.522Z,13.20
2019-04-26T08:26:01.797Z,17.87
2019-04-26T08:28:33.608Z,13.83
2019-04-26T08:31:05.923Z,14.30
2019-04-26T08:33:48.490Z,12.47
2019-04-26T08:36:12.966Z,10.43
2019-04-26T08:38:43.705Z,17.27
2019-04-26T08:41:13.443Z,13.17
2019-04-26T08:44:03.699Z,15.00
2019-04-26T08:46:37.298Z,17.53
2019-04-26T08:49:11.122Z,12.90
2019-04-26T08:51:42.391Z,12.40
2019-04-26T08:54:18.951Z,14.37
2019-04-26T08:56:50.661Z,13.10
2019-04-26T08:59:25.300Z,15.87
2019-04-26T09:02:07.080Z,16.17
2019-04-26T09:04:52.390Z,18.80
2019-04-26T09:07:36.355Z,11.27
2019-04-26T09:10:11.247Z,17.17
2019-04-26T09:12:41.134Z,13.90
2019-04-26T09:15:14.199Z,12.90
2019-04-26T09:17:43.170Z,24.63
2019-04-26T09:20:12.392Z,18.73
2019-04-26T09:22:48.578Z,15.33
2019-04-26T09:25:34.562Z,16.50
2019-04-26T09:28:08.621Z,17.43
2019-04-26T09:30:57.122Z,21.47
2019-04-26T09:33:27.550Z,15.83
2019-04-26T09:35:56.305Z,14.40
2019-04-26T09:38:25.052Z,11.63
2019-04-26T09:40:56.323Z,10.80
2019-04-26T09:43:28.854Z,17.93
2019-04-26T09:46:01.712Z,14.50
2019-04-26T09:48:32.080Z,12.03
2019-04-26T09:51:01.606Z,13.40
2019-04-26T09:53:30.356Z,13.60
2019-04-26T09:55:59.219Z,7.20
2019-04-26T09:58:30.685Z,11.83
2019-04-26T10:00:58.829Z,12.03
2019-04-26T10:03:27.571Z,15.03
2019-04-26T10:05:57.108Z,13.20
2019-04-26T10:08:25.978Z,15.20
2019-04-26T10:10:54.778Z,11.43
2019-04-26T10:13:43.070Z,15.00
2019-04-26T10:16:19.360Z,12.23
2019-04-26T10:18:49.764Z,13.17
2019-04-26T10:21:19.666Z,9.47
2019-04-26T10:23:48.411Z,11.43
2019-04-26T10:26:17.270Z,19.90
2019-04-26T10:28:46.741Z,15.53
2019-04-26T10:31:17.208Z,15.10
2019-04-26T10:33:46.146Z,19.03
2019-04-26T10:36:14.984Z,17.93
2019-04-26T10:38:43.752Z,9.73
2019-04-26T10:41:12.965Z,22.57
2019-04-26T10:43:41.762Z,14.90
2019-04-26T10:46:10.594Z,17.40
2019-04-26T10:48:41.294Z,7.70
2019-04-26T10:51:09.995Z,14.53
2019-04-26T10:53:46.628Z,14.30
2019-04-26T10:56:20.228Z,11.33
2019-04-26T10:59:01.077Z,19.33
2019-04-26T11:01:30.088Z,17.93
2019-04-26T11:03:58.824Z,17.37
2019-04-26T11:06:28.890Z,13.77
2019-04-26T11:08:57.835Z,13.57
2019-04-26T11:11:26.644Z,9.43
2019-04-26T11:13:57.487Z,12.67
2019-04-26T11:16:25.872Z,13.30
2019-04-26T11:18:57.235Z,11.53
2019-04-26T11:21:25.062Z,14.70
2019-04-26T11:23:53.804Z,13.50
2019-04-26T11:26:22.645Z,12.57
2019-04-26T11:28:55.543Z,15.53
2019-04-26T11:31:23.317Z,7.70
2019-04-26T11:34:04.480Z,10.27
2019-04-26T11:36:22.607Z,10.70
2019-04-26T11:38:51.406Z,16.20
2019-04-26T11:41:20.151Z,8.90
2019-04-26T11:43:49.073Z,6.83
2019-04-26T11:46:21.829Z,12.63
2019-04-26T11:48:58.604Z,6.67
2019-04-26T11:51:23.605Z,8.07
2019-04-26T11:53:50.549Z,8.57
2019-04-26T11:56:19.306Z,5.83
2019-04-26T11:58:48.058Z,15.17
2019-04-26T12:01:18.440Z,10.10
2019-04-26T12:03:55.574Z,7.70
2019-04-26T12:06:38.670Z,12.43
2019-04-26T12:09:09.581Z,9.60
2019-04-26T12:11:48.974Z,14.23
2019-04-26T12:14:19.610Z,14.30
2019-04-26T12:16:48.085Z,13.03
2019-04-26T12:19:09.617Z,10.97
2019-04-26T12:21:38.350Z,11.50
2019-04-26T12:24:07.292Z,12.63
2019-04-26T12:26:42.635Z,17.37
2019-04-26T12:29:06.476Z,16.47
2019-04-26T12:31:35.257Z,19.47
2019-04-26T12:34:03.984Z,19.10
2019-04-26T12:36:32.781Z,23.17
2019-04-26T12:39:02.172Z,21.10
2019-04-26T12:41:40.430Z,18.37
2019-04-26T12:44:03.283Z,14.40
2019-04-26T12:46:42.743Z,19.13
2019-04-26T12:49:11.484Z,21.00
2019-04-26T12:51:42.774Z,20.67
2019-04-26T12:54:11.032Z,20.60
2019-04-26T12:56:39.772Z,13.20
2019-04-26T12:59:08.546Z,18.30
2019-04-26T13:01:37.350Z,19.80
2019-04-26T13:04:06.941Z,19.67
2019-04-26T13:06:47.002Z,17.70
2019-04-26T13:09:21.989Z,24.50
2019-04-26T13:12:06.226Z,19.43
2019-04-26T13:14:42.949Z,21.80
2019-04-26T13:17:21.016Z,25.00
2019-04-26T13:19:53.728Z,24.33
2019-04-26T13:22:20.085Z,22.10
2019-04-26T13:24:48.851Z,22.53
2019-04-26T13:27:17.598Z,23.33
2019-04-26T13:29:48.229Z,24.70
2019-04-26T13:32:16.851Z,27.60
2019-04-26T13:34:45.618Z,22.33
2019-04-26T13:37:14.308Z,24.77
2019-04-26T13:39:43.079Z,21.73
2019-04-26T13:42:13.621Z,17.60
2019-04-26T13:44:56.227Z,25.73
2019-04-26T13:47:35.460Z,20.77
2019-04-26T13:50:14.151Z,20.07
2019-04-26T13:52:42.988Z,17.57
2019-04-26T13:55:11.915Z,25.63
2019-04-26T13:57:44.472Z,23.73
2019-04-26T14:00:13.538Z,25.40
2019-04-26T14:02:42.375Z,22.63
2019-04-26T14:05:15.027Z,18.27
2019-04-26T14:07:41.664Z,19.07
2019-04-26T14:10:10.833Z,22.37
2019-04-26T14:12:39.568Z,18.17
2019-04-26T14:15:10.102Z,25.17
2019-04-26T14:17:38.995Z,23.03
2019-04-26T14:20:07.731Z,28.50
2019-04-26T14:22:50.396Z,23.03
2019-04-26T14:25:20.770Z,14.90
2019-04-26T14:27:53.923Z,23.67
2019-04-26T14:30:22.723Z,14.67
2019-04-26T14:32:53.186Z,24.47
2019-04-26T14:35:21.887Z,20.30
2019-04-26T14:37:51.611Z,24.47
2019-04-26T14:40:20.492Z,15.97
2019-04-26T14:42:49.270Z,21.57
2019-04-26T14:45:23.718Z,23.83
2019-04-26T14:47:48.497Z,24.60
2019-04-26T14:50:17.275Z,22.10
2019-04-26T14:52:46.012Z,19.43
2019-04-26T14:55:16.649Z,12.43
2019-04-26T14:57:46.813Z,15.90
2019-04-26T15:00:16.727Z,18.80
2019-04-26T15:02:52.841Z,25.53
2019-04-26T15:05:25.384Z,17.63
2019-04-26T15:07:54.105Z,14.37
2019-04-26T15:10:24.531Z,21.10
2019-04-26T15:13:11.465Z,19.10
2019-04-26T15:15:26.959Z,20.83
2019-04-26T15:17:59.462Z,17.13
2019-04-26T15:20:24.591Z,18.40
2019-04-26T15:22:53.362Z,22.73
2019-04-26T15:25:22.162Z,14.20
2019-04-26T15:27:52.468Z,24.53
2019-04-26T15:30:22.073Z,13.63
2019-04-26T15:32:52.924Z,11.73
2019-04-26T15:35:23.204Z,25.23
2019-04-26T15:37:53.450Z,20.03
2019-04-26T15:40:35.071Z,24.77
2019-04-26T15:43:16.661Z,24.30
2019-04-26T15:45:49.748Z,32.40
2019-04-26T15:48:25.908Z,25.57
2019-04-26T15:50:55.794Z,21.40
2019-04-26T15:53:24.649Z,27.47
2019-04-26T15:55:53.430Z,31.17
2019-04-26T15:58:22.177Z,22.43
2019-04-26T16:00:52.749Z,27.07
2019-04-26T16:03:22.736Z,25.20
2019-04-26T16:05:51.625Z,30.20
2019-04-26T16:08:20.448Z,32.57
2019-04-26T16:10:49.209Z,24.23
2019-04-26T16:13:21.074Z,31.10
2019-04-26T16:15:49.678Z,28.40
2019-04-26T16:18:19.189Z,26.93
2019-04-26T16:20:48.030Z,36.03
2019-04-26T16:23:16.805Z,32.87
2019-04-26T16:25:45.573Z,29.33
2019-04-26T16:28:33.332Z,29.60
2019-04-26T16:31:06.559Z,31.77
2019-04-26T16:33:35.896Z,27.17
2019-04-26T16:36:06.169Z,30.67
2019-04-26T16:38:36.130Z,26.30
2019-04-26T16:41:05.670Z,32.37
2019-04-26T16:43:40.218Z,36.63
2019-04-26T16:46:06.459Z,29.97
2019-04-26T16:48:35.207Z,39.77
2019-04-26T16:51:23.415Z,27.87
2019-04-26T16:54:06.268Z,37.63
2019-04-26T16:56:26.618Z,31.97
2019-04-26T16:58:54.929Z,30.00
2019-04-26T17:01:23.727Z,32.87
2019-04-26T17:03:53.431Z,31.87
2019-04-26T17:06:23.283Z,31.40
2019-04-26T17:08:58.721Z,25.03
2019-04-26T17:11:23.076Z,46.20
2019-04-26T17:13:56.617Z,28.67
2019-04-26T17:16:24.146Z,34.17
2019-04-26T17:18:55.725Z,26.10
2019-04-26T17:21:25.709Z,29.70
2019-04-26T17:24:08.496Z,32.43
2019-04-26T17:26:37.224Z,32.87
2019-04-26T17:29:05.953Z,21.87
2019-04-26T17:31:34.859Z,35.77
2019-04-26T17:34:05.192Z,33.23
2019-04-26T17:36:34.523Z,36.60
2019-04-26T17:39:04.462Z,30.90
2019-04-26T17:41:33.371Z,35.30
2019-04-26T17:44:08.499Z,40.83
2019-04-26T17:46:32.751Z,30.97
2019-04-26T17:49:01.620Z,37.47
2019-04-26T17:51:32.568Z,32.77
2019-04-26T17:54:21.175Z,24.27
2019-04-26T17:56:34.876Z,30.90
2019-04-26T17:59:03.274Z,28.63
2019-04-26T18:01:42.984Z,32.13
2019-04-26T18:04:02.636Z,30.47
2019-04-26T18:06:31.322Z,27.93
2019-04-26T18:09:00.164Z,25.97
2019-04-26T18:11:28.957Z,23.23
2019-04-26T18:13:57.843Z,30.20
2019-04-26T18:16:29.532Z,31.70
2019-04-26T18:19:10.597Z,33.30
2019-04-26T18:21:40.980Z,32.17
2019-04-26T18:24:09.986Z,37.37
2019-04-26T18:26:38.821Z,30.13
2019-04-26T18:29:07.600Z,32.97
2019-04-26T18:31:36.511Z,33.53
2019-04-26T18:34:06.023Z,29.73
2019-04-26T18:36:34.816Z,26.10
2019-04-26T18:39:03.997Z,39.93
2019-04-26T18:41:33.928Z,26.57
2019-04-26T18:44:03.124Z,32.10
2019-04-26T18:46:35.691Z,26.27
2019-04-26T18:49:04.636Z,26.90
2019-04-26T18:51:33.504Z,20.67
2019-04-26T18:54:17.808Z,20.73
2019-04-26T18:56:47.959Z,20.53
2019-04-26T18:59:16.681Z,23.67
2019-04-26T19:01:45.711Z,26.23
2019-04-26T19:04:15.501Z,23.87
2019-04-26T19:06:44.441Z,25.53
2019-04-26T19:09:13.792Z,31.90
2019-04-26T19:11:48.517Z,22.50
2019-04-26T19:14:21.806Z,29.27
2019-04-26T19:17:04.235Z,24.87
2019-04-26T19:19:51.686Z,21.80
2019-04-26T19:22:22.435Z,29.37
2019-04-26T19:24:55.874Z,29.33
2019-04-26T19:27:26.549Z,31.40
2019-04-26T19:29:52.144Z,27.50
2019-04-26T19:32:21.838Z,24.97
2019-04-26T19:34:52.497Z,27.27
2019-04-26T19:37:23.024Z,22.97
2019-04-26T19:39:51.868Z,25.33
2019-04-26T19:42:20.603Z,17.87
2019-04-26T19:45:10.790Z,18.83
2019-04-26T19:47:24.185Z,30.47
2019-04-26T19:50:09.492Z,27.50
2019-04-26T19:52:42.446Z,30.23
2019-04-26T19:55:27.155Z,24.60
2019-04-26T19:57:57.536Z,28.57
2019-04-26T20:00:26.348Z,28.77
2019-04-26T20:02:55.164Z,20.47
2019-04-26T20:05:24.015Z,25.43
2019-04-26T20:07:52.842Z,22.47
2019-04-26T20:10:23.192Z,24.73
2019-04-26T20:12:52.835Z,22.20
2019-04-26T20:15:26.744Z,26.53
2019-04-26T20:17:59.354Z,39.70
2019-04-26T20:20:23.794Z,37.03
2019-04-26T20:22:52.968Z,24.93
2019-04-26T20:25:22.398Z,26.93
2019-04-26T20:27:53.735Z,21.43
2019-04-26T20:30:39.554Z,23.90
2019-04-26T20:33:09.584Z,26.10
2019-04-26T20:35:38.268Z,44.03
2019-04-26T20:38:07.023Z,33.13
2019-04-26T20:40:35.789Z,23.87
2019-04-26T20:43:06.949Z,20.23
2019-04-26T20:45:41.732Z,35.73
2019-04-26T20:48:05.485Z,30.37
2019-04-26T20:50:36.791Z,23.80
2019-04-26T20:53:05.359Z,28.33
2019-04-26T20:55:34.689Z,18.93
2019-04-26T20:58:05.705Z,38.93
2019-04-26T21:00:36.460Z,25.50
2019-04-26T21:03:06.210Z,27.50
2019-04-26T21:05:45.706Z,18.30
2019-04-26T21:08:05.606Z,24.07
2019-04-26T21:10:35.959Z,34.50
2019-04-26T21:13:06.082Z,26.57
2019-04-26T21:15:36.064Z,28.27
2019-04-26T21:18:05.098Z,14.50
2019-04-26T21:20:36.451Z,33.27
2019-04-26T21:23:04.508Z,12.70
2019-04-26T21:25:35.555Z,18.40
2019-04-26T21:28:06.619Z,21.33
2019-04-26T21:30:44.199Z,21.83
2019-04-26T21:33:24.042Z,20.03
2019-04-26T21:36:02.098Z,23.20
2019-04-26T21:38:44.406Z,17.77
2019-04-26T21:41:20.880Z,29.07
2019-04-26T21:43:49.648Z,29.03
2019-04-26T21:46:19.175Z,19.23
2019-04-26T21:48:49.017Z,19.37
2019-04-26T21:51:17.869Z,10.27
2019-04-26T21:53:46.605Z,21.17
2019-04-26T21:56:17.156Z,27.63
2019-04-26T21:58:46.248Z,26.83
2019-04-26T22:01:19.326Z,14.63
2019-04-26T22:03:54.078Z,20.53
2019-04-26T22:06:19.998Z,15.30
2019-04-26T22:08:55.693Z,18.67
2019-04-26T22:11:23.156Z,28.73
2019-04-26T22:13:53.420Z,18.70
2019-04-26T22:16:40.054Z,22.07
2019-04-26T22:19:27.904Z,23.90
2019-04-26T22:22:15.400Z,27.20
2019-04-26T22:24:45.822Z,24.57
2019-04-26T22:27:17.363Z,20.57
2019-04-26T22:29:47.570Z,24.87
2019-04-26T22:32:18.893Z,14.30
2019-04-26T22:34:46.367Z,26.37
2019-04-26T22:37:28.913Z,15.73
2019-04-26T22:39:45.691Z,20.57
2019-04-26T22:42:14.615Z,17.40
2019-04-26T22:44:50.738Z,16.83
2019-04-26T22:47:21.154Z,17.17
2019-04-26T22:49:49.862Z,20.23
2019-04-26T22:52:18.670Z,26.77
2019-04-26T22:54:47.613Z,28.90
2019-04-26T22:57:16.651Z,17.77
2019-04-26T22:59:49.952Z,19.90
2019-04-26T23:02:18.541Z,26.50
2019-04-26T23:04:47.334Z,25.90
2019-04-26T23:07:18.232Z,25.53
2019-04-26T23:09:52.087Z,14.17
2019-04-26T23:12:35.698Z,21.63
2019-04-26T23:15:13.408Z,33.03
2019-04-26T23:18:03.661Z,29.90
2019-04-26T23:20:37.790Z,30.77
2019-04-26T23:23:08.489Z,28.17
2019-04-26T23:25:36.084Z,21.03
2019-04-26T23:28:05.525Z,14.80
2019-04-26T23:30:34.317Z,20.90
2019-04-26T23:33:04.527Z,27.03
2019-04-26T23:35:37.773Z,16.00
2019-04-26T23:38:05.195Z,13.63
2019-04-26T23:40:34.214Z,12.50
2019-04-26T23:43:02.981Z,19.63
2019-04-26T23:45:33.293Z,16.80
2019-04-26T23:48:03.521Z,14.33
2019-04-26T23:50:34.090Z,12.93
2019-04-26T23:53:03.061Z,16.43
2019-04-26T23:55:33.712Z,16.70
2019-04-26T23:58:06.450Z,15.03
